Startpagina
METAR-TAF:

METAR-TAF

Vliegvelden :

Internationale Luchthaven Baghdad

Bagdad, Irak

breedte: 33-15-45N, lengte: 44-14-04E, hoogte: 35 m

Actueel weer

Dit bericht is 58 minuten geleden gemaakt, om 16:00 UTC
Wind 5 kt uit het westen
Temperatuur 39°C
Vochtigheid 18%
Druk 999 hPa
Zicht 10 km of meer
geen wolken onder 1500 m en geen cumulonimbus

METAR: ORBI 151600Z 26005KT CAVOK 39/10 Q0999 NOSIG

Tijdstip: 19:58 (16:58 UTC)

Verwachting

Dit bericht is 6 uur en het 58 minuten geleden gemaakt, om 10:00 UTC
Verwachting geldig van 15 om 12 UTC tot 16 om 12 UTC
Wind 10 kt uit het noordwesten
Zicht: 7000 m

TAF: ORBI 151000Z 1512/1612 32010KT 7000 NSC

Waarnemingen en weersverwachtingen van meer dan 4000 vliegvelden (METAR en TAF).

De beschikbare stations zijn de gele en rode punten op de kaart.

Ga met uw muis naar het station om de naam te zien.

Klik dan om waarnemingen en weersverwachtingen te zien.

kaart wijzigen: klik op de groene knoppen met een zwart kruis om in te zoomen, op de groene knop met een streepje om uit te zoomen of op de groene pijlen voor aangrenzende kaarten.


METAR-TAF: